Terminal Aerodrome Forecast
Issued by NWS Greer, SC

Home | Current Version | Previous Version | Text Only | Print | Product List | Glossary On
Versions: 1 2 3 4 5 6 7 8 9 10 11 12 13
000
FTUS42 KGSP 232335
TAFAVL
TAF
KAVL 232335Z 2400/2424 15006KT P6SM SCT250
     FM241100 17005KT P6SM BKN060
     FM241300 17004KT P6SM BKN030
     FM241700 18005KT P6SM SCT020 SCT250=

USA.gov is the U.S. government's official web portal to all federal, state and local government web resources and services.